Time;durP1;ratioP1;P1;durP2;ratioP2;P2;SDS_P1;SDS_P2;PMS_P1;PMS_P2;Temp;Humidity;BMP_temperature;BMP_pressure;BME280_temperature;BME280_humidity;BME280_pressure;Samples;Min_cycle;Max_cycle;Signal;HPM_P1;HPM_P2
2023/05/04 00:00:23;;;;;;;10.02;5.90;;;6.40;99.90;;;;;;4981843;28;20041;-85
2023/05/04 00:02:49;;;;;;;12.32;6.30;;;6.40;99.90;;;;;;4978712;28;20497;-86
2023/05/04 00:05:15;;;;;;;12.73;5.93;;;6.30;99.90;;;;;;4978227;28;20034;-84
2023/05/04 00:07:41;;;;;;;17.17;5.70;;;6.30;99.90;;;;;;4995383;28;20038;-85
2023/05/04 00:10:10;;;;;;;11.63;5.70;;;6.30;99.90;;;;;;4980316;28;20046;-85
2023/05/04 00:12:35;;;;;;;12.73;5.93;;;6.30;99.90;;;;;;4981736;28;20734;-86
2023/05/04 00:15:01;;;;;;;10.73;5.90;;;6.30;99.90;;;;;;5011671;28;20053;-86
2023/05/04 00:17:27;;;;;;;9.85;5.93;;;6.20;99.90;;;;;;4982939;28;20763;-86
2023/05/04 00:19:52;;;;;;;9.50;5.80;;;6.20;99.90;;;;;;4992158;28;20126;-86
2023/05/04 00:22:18;;;;;;;10.90;6.65;;;6.20;99.90;;;;;;4979735;28;20041;-85
2023/05/04 00:24:44;;;;;;;9.57;6.38;;;6.20;99.90;;;;;;5011402;28;20212;-86
2023/05/04 00:27:10;;;;;;;10.60;5.93;;;6.20;99.90;;;;;;4997695;28;20041;-86
2023/05/04 00:29:39;;;;;;;11.25;6.40;;;6.20;99.90;;;;;;4981908;28;20384;-85
2023/05/04 00:32:05;;;;;;;9.63;4.93;;;6.10;99.90;;;;;;4978664;28;20041;-86
2023/05/04 00:34:33;;;;;;;14.90;6.35;;;6.20;99.90;;;;;;4981457;28;20112;-86
2023/05/04 00:36:59;;;;;;;10.57;5.95;;;6.20;99.90;;;;;;4982740;28;20038;-86
2023/05/04 00:39:25;;;;;;;10.50;6.07;;;6.10;99.90;;;;;;4993118;28;20494;-86
2023/05/04 00:41:54;;;;;;;10.50;6.05;;;6.10;99.90;;;;;;4981399;28;20201;-86
2023/05/04 00:44:22;;;;;;;11.48;6.35;;;6.00;99.90;;;;;;4978010;28;20500;-86
2023/05/04 00:46:49;;;;;;;10.20;6.20;;;6.00;99.90;;;;;;4994359;28;20046;-86
2023/05/04 00:49:14;;;;;;;10.15;5.75;;;6.00;99.90;;;;;;4993649;28;20080;-86
2023/05/04 00:51:40;;;;;;;12.27;6.05;;;6.00;99.90;;;;;;4994994;28;20576;-86
2023/05/04 00:54:06;;;;;;;12.50;6.22;;;5.90;99.90;;;;;;4995070;28;20038;-86
2023/05/04 00:56:40;;;;;;;10.45;6.07;;;5.90;99.90;;;;;;4979570;28;20125;-86
2023/05/04 00:59:06;;;;;;;13.25;7.07;;;5.90;99.90;;;;;;4990443;28;20050;-86
2023/05/04 01:01:32;;;;;;;11.55;6.35;;;5.90;99.90;;;;;;4993206;28;20251;-85
2023/05/04 01:03:58;;;;;;;13.70;6.85;;;5.90;99.90;;;;;;4996736;28;20045;-86
2023/05/04 01:06:51;;;;;;;10.73;6.45;;;5.90;99.90;;;;;;4977537;28;20038;-86
2023/05/04 01:09:36;;;;;;;16.05;6.65;;;5.90;99.90;;;;;;4979924;28;20057;-86
2023/05/04 01:12:07;;;;;;;14.23;6.70;;;5.90;99.90;;;;;;4980539;28;20497;-86
2023/05/04 01:14:34;;;;;;;9.38;6.13;;;5.90;99.90;;;;;;4979481;28;20058;-86
2023/05/04 01:17:06;;;;;;;8.95;5.85;;;5.90;99.90;;;;;;4979164;28;20038;-86
2023/05/04 01:19:32;;;;;;;10.07;6.55;;;5.90;99.90;;;;;;4994084;28;20045;-86
2023/05/04 01:21:58;;;;;;;9.57;6.28;;;5.90;99.90;;;;;;4993648;28;20038;-86
2023/05/04 01:24:25;;;;;;;10.85;5.90;;;5.80;99.90;;;;;;4995190;28;20046;-86
2023/05/04 01:26:58;;;;;;;11.45;6.20;;;5.80;99.90;;;;;;4995504;28;20137;-86
2023/05/04 01:29:40;;;;;;;11.57;6.60;;;5.80;99.90;;;;;;4996459;28;20061;-86
2023/05/04 01:32:07;;;;;;;12.48;6.97;;;5.80;99.90;;;;;;4995943;28;20053;-86
2023/05/04 01:34:34;;;;;;;9.45;6.20;;;5.90;99.90;;;;;;4977657;28;20154;-86
2023/05/04 01:37:00;;;;;;;13.32;6.68;;;5.80;99.90;;;;;;4974299;28;20049;-86
2023/05/04 01:39:26;;;;;;;10.65;7.00;;;5.80;99.90;;;;;;4996319;28;20037;-86
2023/05/04 01:41:55;;;;;;;14.30;6.88;;;5.80;99.90;;;;;;4994865;28;20037;-85
2023/05/04 01:44:21;;;;;;;10.73;6.95;;;5.80;99.90;;;;;;4978630;28;20107;-86
2023/05/04 01:46:47;;;;;;;13.45;6.72;;;5.80;99.90;;;;;;4979672;28;20485;-86
2023/05/04 01:49:13;;;;;;;11.98;6.72;;;5.80;99.90;;;;;;4996886;28;20416;-86
2023/05/04 01:51:38;;;;;;;10.98;7.05;;;5.80;99.90;;;;;;4982718;28;20413;-86
2023/05/04 01:54:04;;;;;;;15.27;6.75;;;5.80;99.90;;;;;;4995004;28;20054;-86
2023/05/04 01:56:30;;;;;;;12.77;7.03;;;5.80;99.90;;;;;;4997326;28;20042;-85
2023/05/04 01:58:58;;;;;;;10.90;7.28;;;5.80;99.90;;;;;;4984456;28;20125;-86
2023/05/04 02:01:24;;;;;;;12.07;7.78;;;5.80;99.90;;;;;;4998929;28;20077;-86
2023/05/04 02:03:50;;;;;;;10.55;7.32;;;5.80;99.90;;;;;;4998830;28;20073;-86
2023/05/04 02:06:16;;;;;;;15.00;7.15;;;5.70;99.90;;;;;;4996425;28;20045;-86
2023/05/04 02:08:41;;;;;;;12.25;6.60;;;5.70;99.90;;;;;;4995737;28;20045;-87
2023/05/04 02:11:07;;;;;;;15.63;7.50;;;5.70;99.90;;;;;;4983609;28;20128;-86
2023/05/04 02:13:33;;;;;;;15.00;7.60;;;5.70;99.90;;;;;;4979149;28;20046;-86
2023/05/04 02:15:58;;;;;;;13.23;8.52;;;5.70;99.90;;;;;;4981568;28;20111;-86
2023/05/04 02:18:27;;;;;;;16.90;7.60;;;5.70;99.90;;;;;;5000069;28;20090;-86
2023/05/04 02:20:53;;;;;;;11.68;7.30;;;5.60;99.90;;;;;;4983489;28;20041;-86
2023/05/04 02:23:18;;;;;;;16.42;8.20;;;5.60;99.90;;;;;;4991651;28;20041;-86
2023/05/04 02:25:44;;;;;;;13.55;7.45;;;5.60;99.90;;;;;;4995390;28;20426;-86
2023/05/04 02:28:10;;;;;;;12.50;8.02;;;5.60;99.90;;;;;;4996587;28;20034;-86
2023/05/04 02:30:35;;;;;;;15.55;8.02;;;5.60;99.90;;;;;;4993017;28;20042;-85
2023/05/04 02:33:01;;;;;;;14.38;8.25;;;5.60;99.90;;;;;;4998643;28;20378;-85
2023/05/04 02:35:26;;;;;;;14.15;8.15;;;5.60;99.90;;;;;;4981080;28;20473;-86
2023/05/04 02:37:55;;;;;;;14.48;9.18;;;5.60;99.90;;;;;;4983307;28;20029;-86
2023/05/04 02:40:21;;;;;;;14.68;8.20;;;5.60;99.90;;;;;;4997211;28;20869;-86
2023/05/04 02:42:46;;;;;;;16.35;8.15;;;5.60;99.90;;;;;;4982700;28;20489;-86
2023/05/04 02:45:12;;;;;;;11.60;8.25;;;5.60;99.90;;;;;;4996749;28;20062;-86
2023/05/04 02:47:38;;;;;;;14.00;8.80;;;5.60;99.90;;;;;;4997805;28;20395;-86
2023/05/04 02:50:04;;;;;;;14.25;8.18;;;5.60;99.90;;;;;;4982693;28;20113;-86
2023/05/04 02:52:30;;;;;;;17.50;9.35;;;5.60;99.90;;;;;;4997596;28;20930;-86
2023/05/04 02:54:58;;;;;;;12.98;8.55;;;5.60;99.90;;;;;;4982027;28;20073;-86
2023/05/04 02:57:24;;;;;;;14.82;8.98;;;5.60;99.90;;;;;;4985075;28;20098;-86
2023/05/04 02:59:50;;;;;;;14.07;8.45;;;5.60;99.90;;;;;;4977808;28;20510;-87
2023/05/04 03:02:16;;;;;;;12.75;8.98;;;5.60;99.90;;;;;;4977607;28;20053;-85
2023/05/04 03:04:41;;;;;;;16.98;8.57;;;5.70;99.90;;;;;;4994278;28;20053;-86
2023/05/04 03:07:08;;;;;;;14.55;8.98;;;5.70;99.90;;;;;;4994937;28;20037;-86
2023/05/04 03:09:34;;;;;;;15.32;7.72;;;5.70;99.90;;;;;;4980822;28;20046;-86
2023/05/04 03:12:00;;;;;;;13.90;8.25;;;5.70;99.90;;;;;;4997194;28;20417;-86
2023/05/04 03:14:26;;;;;;;15.05;8.68;;;5.70;99.90;;;;;;4994193;28;20068;-86
2023/05/04 03:16:51;;;;;;;16.90;9.10;;;5.80;99.90;;;;;;4998109;28;20414;-86
2023/05/04 03:19:18;;;;;;;14.00;8.00;;;5.70;99.90;;;;;;5010913;28;20413;-86
2023/05/04 03:21:47;;;;;;;15.63;9.38;;;5.80;99.90;;;;;;4981834;28;20558;-86
2023/05/04 03:24:16;;;;;;;14.30;8.65;;;5.80;99.90;;;;;;4979148;28;20045;-86
2023/05/04 03:26:41;;;;;;;12.57;7.53;;;5.80;99.90;;;;;;4998780;28;20454;-87
2023/05/04 03:29:07;;;;;;;15.27;7.93;;;5.80;99.90;;;;;;4980664;28;20065;-86
2023/05/04 03:31:33;;;;;;;15.38;8.15;;;5.80;99.90;;;;;;4976919;28;20042;-86
2023/05/04 03:33:58;;;;;;;16.67;8.93;;;5.80;99.90;;;;;;4982880;28;20041;-87
2023/05/04 03:36:24;;;;;;;13.85;8.07;;;5.80;99.90;;;;;;4978919;28;20038;-86
2023/05/04 03:38:50;;;;;;;13.00;8.18;;;5.80;99.90;;;;;;4984492;28;20461;-86
2023/05/04 03:41:16;;;;;;;17.05;8.63;;;5.80;99.90;;;;;;4980349;28;20102;-86
2023/05/04 03:43:42;;;;;;;14.98;8.68;;;5.80;99.90;;;;;;4980630;28;20160;-86
2023/05/04 03:46:10;;;;;;;15.32;8.32;;;5.80;99.90;;;;;;4997510;28;20641;-86
2023/05/04 03:48:36;;;;;;;18.23;8.90;;;5.80;99.90;;;;;;4998572;28;20041;-86
2023/05/04 03:51:02;;;;;;;12.85;8.60;;;5.90;99.90;;;;;;4995902;28;20045;-86
2023/05/04 03:53:28;;;;;;;11.82;8.15;;;5.90;99.90;;;;;;4983720;28;20316;-86
2023/05/04 03:55:53;;;;;;;13.23;8.32;;;5.90;99.90;;;;;;4979216;28;20557;-86
2023/05/04 03:58:19;;;;;;;16.67;8.60;;;5.90;99.90;;;;;;4983033;28;20038;-87
2023/05/04 04:00:45;;;;;;;13.27;9.10;;;5.90;99.90;;;;;;4994797;28;20054;-87
2023/05/04 04:03:11;;;;;;;14.00;8.52;;;5.90;99.90;;;;;;4981745;28;20167;-86
2023/05/04 04:05:36;;;;;;;13.05;8.38;;;5.90;99.90;;;;;;4992931;28;20043;-87
2023/05/04 04:08:02;;;;;;;13.65;8.13;;;6.00;99.90;;;;;;5014551;28;20594;-86
2023/05/04 04:10:29;;;;;;;16.42;8.27;;;6.00;99.90;;;;;;4995519;28;20531;-86
2023/05/04 04:12:55;;;;;;;13.57;7.95;;;6.00;99.90;;;;;;5012064;28;20038;-87
2023/05/04 04:15:21;;;;;;;14.07;8.25;;;6.00;99.90;;;;;;4980609;28;20246;-86
2023/05/04 04:17:46;;;;;;;14.90;8.18;;;6.00;99.90;;;;;;4994140;28;20083;-87
2023/05/04 04:20:12;;;;;;;14.32;8.20;;;6.10;99.90;;;;;;4976700;28;20700;-86
2023/05/04 04:22:38;;;;;;;14.40;7.80;;;6.10;99.90;;;;;;4980135;28;20153;-86
2023/05/04 04:25:07;;;;;;;13.45;8.13;;;6.10;99.90;;;;;;4994885;28;20125;-86
2023/05/04 04:27:33;;;;;;;18.13;8.27;;;6.20;99.90;;;;;;4982309;28;20046;-86
2023/05/04 04:29:59;;;;;;;14.68;8.00;;;6.10;99.90;;;;;;4994250;28;20168;-86
2023/05/04 04:32:25;;;;;;;17.23;8.45;;;6.20;99.90;;;;;;4998058;28;20030;-86
2023/05/04 04:34:50;;;;;;;12.10;7.80;;;6.20;99.90;;;;;;4993717;28;20033;-86
2023/05/04 04:37:16;;;;;;;11.82;7.32;;;6.20;99.90;;;;;;4993623;28;20045;-86
2023/05/04 04:39:42;;;;;;;13.55;7.68;;;6.20;99.90;;;;;;4977543;28;20347;-86
2023/05/04 04:42:11;;;;;;;14.50;7.90;;;6.20;99.90;;;;;;4982488;28;20042;-86
2023/05/04 04:44:39;;;;;;;14.75;8.13;;;6.20;99.90;;;;;;4996840;28;20034;-87
2023/05/04 04:47:05;;;;;;;13.88;7.80;;;6.20;99.90;;;;;;4991190;28;20129;-86
2023/05/04 04:49:31;;;;;;;14.02;7.45;;;6.30;99.90;;;;;;4979493;28;20620;-86
2023/05/04 04:51:56;;;;;;;13.68;7.72;;;6.30;99.90;;;;;;4992822;28;20041;-86
2023/05/04 04:54:22;;;;;;;15.07;7.57;;;6.40;99.90;;;;;;4992846;28;20121;-86
2023/05/04 04:56:48;;;;;;;14.02;7.70;;;6.40;99.90;;;;;;4992331;28;20038;-87
2023/05/04 04:59:14;;;;;;;13.07;7.43;;;6.40;99.90;;;;;;4995258;28;20042;-87
2023/05/04 05:01:41;;;;;;;14.05;7.72;;;6.50;99.90;;;;;;4978235;28;20165;-86
2023/05/04 05:04:07;;;;;;;12.07;7.78;;;6.50;99.90;;;;;;4980521;28;20121;-86
2023/05/04 05:06:32;;;;;;;10.90;7.30;;;6.50;99.90;;;;;;4979317;28;20212;-86
2023/05/04 05:08:58;;;;;;;12.32;8.00;;;6.60;99.90;;;;;;4979449;28;20749;-86
2023/05/04 05:11:24;;;;;;;13.32;7.38;;;6.60;99.90;;;;;;4994183;28;20049;-86
2023/05/04 05:13:49;;;;;;;16.85;7.82;;;6.60;99.90;;;;;;4976448;28;20065;-86
2023/05/04 05:16:15;;;;;;;11.30;7.60;;;6.70;99.90;;;;;;4979580;28;20041;-86
2023/05/04 05:18:44;;;;;;;13.32;7.35;;;6.80;99.90;;;;;;4979382;28;20940;-86
2023/05/04 05:21:10;;;;;;;14.77;8.02;;;6.80;99.90;;;;;;4994260;28;20066;-86
2023/05/04 05:23:36;;;;;;;17.13;8.10;;;6.90;99.90;;;;;;4991771;28;20504;-86
2023/05/04 05:26:01;;;;;;;14.15;8.05;;;6.90;99.90;;;;;;4981107;28;20038;-86
2023/05/04 05:28:28;;;;;;;10.40;7.15;;;6.90;99.90;;;;;;5001385;28;20038;-86
2023/05/04 05:30:54;;;;;;;15.68;7.80;;;7.00;99.90;;;;;;4984652;28;20098;-86
2023/05/04 05:33:23;;;;;;;13.40;7.45;;;7.10;99.90;;;;;;4983514;28;20049;-86
2023/05/04 05:35:48;;;;;;;13.43;7.82;;;7.10;99.90;;;;;;4983529;28;20050;-86
2023/05/04 05:38:16;;;;;;;13.68;7.45;;;7.20;99.90;;;;;;4993988;28;20046;-86
2023/05/04 05:40:42;;;;;;;13.20;8.00;;;7.30;99.90;;;;;;5014185;28;20341;-86
2023/05/04 05:43:07;;;;;;;15.63;7.65;;;7.30;99.90;;;;;;4980000;28;20418;-86
2023/05/04 05:45:33;;;;;;;14.45;7.60;;;7.40;99.90;;;;;;4997019;28;20049;-85
2023/05/04 05:47:59;;;;;;;16.83;7.63;;;7.40;99.90;;;;;;4981946;28;20184;-86
2023/05/04 05:50:24;;;;;;;12.18;7.30;;;7.50;99.90;;;;;;4993653;28;20157;-86
2023/05/04 05:52:50;;;;;;;14.30;7.80;;;7.60;99.90;;;;;;4999092;28;20136;-86
2023/05/04 05:55:16;;;;;;;14.25;7.38;;;7.50;99.90;;;;;;4996294;28;20467;-86
2023/05/04 05:57:41;;;;;;;13.18;7.28;;;7.70;99.90;;;;;;4980146;28;20046;-86
2023/05/04 06:00:08;;;;;;;12.93;7.55;;;7.70;99.90;;;;;;4982737;28;20034;-85
2023/05/04 06:02:33;;;;;;;11.20;6.85;;;7.70;99.90;;;;;;4980559;28;20064;-86
2023/05/04 06:04:59;;;;;;;13.35;7.85;;;7.90;99.90;;;;;;4981938;28;20088;-86
2023/05/04 06:07:25;;;;;;;14.70;7.55;;;7.90;99.90;;;;;;4997447;28;20466;-86
2023/05/04 06:09:51;;;;;;;12.45;7.78;;;8.00;99.90;;;;;;4998774;28;20523;-85
2023/05/04 06:12:16;;;;;;;14.88;8.43;;;8.10;99.90;;;;;;4984489;28;20042;-86
2023/05/04 06:14:42;;;;;;;13.38;8.27;;;8.20;99.90;;;;;;4982748;28;20143;-86
2023/05/04 06:17:08;;;;;;;15.50;8.18;;;8.40;99.90;;;;;;5012773;28;20046;-86
2023/05/04 06:19:36;;;;;;;14.75;7.70;;;8.40;99.90;;;;;;4996361;28;20401;-86
2023/05/04 06:22:02;;;;;;;11.60;7.25;;;8.40;99.90;;;;;;4999748;28;20042;-86
2023/05/04 06:24:28;;;;;;;15.90;7.38;;;8.50;99.90;;;;;;5001247;28;20045;-86
2023/05/04 06:26:55;;;;;;;11.73;7.40;;;8.60;99.90;;;;;;4982401;28;20042;-86
2023/05/04 06:29:21;;;;;;;14.13;8.05;;;8.60;99.90;;;;;;5016913;28;20050;-86
2023/05/04 06:31:46;;;;;;;13.30;7.28;;;8.70;99.90;;;;;;4996414;28;20476;-86
2023/05/04 06:34:14;;;;;;;13.38;7.30;;;8.90;99.90;;;;;;4997291;28;20108;-86
2023/05/04 06:36:39;;;;;;;13.50;7.72;;;8.80;99.90;;;;;;4981473;28;20042;-86
2023/05/04 06:39:05;;;;;;;15.45;7.50;;;9.00;99.90;;;;;;4994005;28;20196;-86
2023/05/04 06:41:31;;;;;;;12.52;7.93;;;9.10;99.90;;;;;;4996365;28;20035;-85
2023/05/04 06:43:58;;;;;;;12.52;7.85;;;9.00;99.90;;;;;;4982331;28;20034;-86
2023/05/04 06:46:24;;;;;;;15.63;8.13;;;9.10;99.90;;;;;;4981369;28;20077;-86
2023/05/04 06:48:50;;;;;;;13.85;7.50;;;9.20;99.90;;;;;;4996231;28;20145;-86
2023/05/04 06:51:16;;;;;;;14.98;7.40;;;9.30;99.90;;;;;;4985288;28;20911;-86
2023/05/04 06:53:41;;;;;;;11.70;7.25;;;9.20;99.90;;;;;;4980998;28;20042;-86
2023/05/04 06:56:07;;;;;;;14.60;7.30;;;9.30;99.90;;;;;;4979825;28;20285;-86
2023/05/04 06:58:36;;;;;;;13.93;7.45;;;9.40;99.90;;;;;;4994921;28;20168;-86
2023/05/04 07:01:02;;;;;;;12.35;7.78;;;9.60;99.90;;;;;;4985541;28;20049;-85
2023/05/04 07:03:28;;;;;;;13.88;7.40;;;9.70;99.90;;;;;;4995917;28;20034;-86
2023/05/04 07:05:54;;;;;;;13.77;7.57;;;9.80;99.90;;;;;;4980190;28;20152;-86
2023/05/04 07:08:19;;;;;;;13.00;7.50;;;9.90;99.90;;;;;;4984713;28;20068;-86
2023/05/04 07:10:45;;;;;;;10.30;6.32;;;10.00;99.90;;;;;;4984735;28;20046;-86
2023/05/04 07:13:12;;;;;;;11.95;7.10;;;10.00;99.90;;;;;;4999814;28;20052;-86
2023/05/04 07:15:38;;;;;;;13.48;7.65;;;10.20;99.90;;;;;;4980147;28;20053;-86
2023/05/04 07:18:04;;;;;;;14.27;6.88;;;10.30;99.90;;;;;;4983117;28;20062;-86
2023/05/04 07:20:29;;;;;;;11.77;7.18;;;10.30;99.90;;;;;;4993928;28;20108;-86
2023/05/04 07:22:59;;;;;;;12.38;7.10;;;10.40;99.90;;;;;;4996009;28;20557;-86
2023/05/04 07:25:25;;;;;;;11.02;6.72;;;10.50;99.90;;;;;;5000676;28;20061;-86
2023/05/04 07:27:52;;;;;;;12.70;7.40;;;10.70;99.90;;;;;;4982334;28;20203;-86
2023/05/04 07:30:18;;;;;;;14.52;7.20;;;10.70;1.00;;;;;;4982578;28;20130;-86
2023/05/04 07:32:45;;;;;;;11.68;7.13;;;10.90;8.00;;;;;;4980251;28;20034;-86
2023/05/04 07:35:11;;;;;;;14.23;6.97;;;10.90;99.90;;;;;;4994961;28;20076;-86
2023/05/04 07:37:37;;;;;;;11.68;7.32;;;11.00;99.90;;;;;;4994976;28;20040;-86
2023/05/04 07:40:06;;;;;;;12.10;6.75;;;11.10;99.90;;;;;;4995182;28;20168;-86
2023/05/04 07:42:33;;;;;;;19.65;7.22;;;11.20;1.00;;;;;;4980810;28;20048;-86
2023/05/04 07:44:59;;;;;;;10.18;7.00;;;11.30;1.00;;;;;;4979897;28;20369;-86
2023/05/04 07:47:25;;;;;;;12.50;6.88;;;11.40;1.00;;;;;;4996209;28;20041;-87
2023/05/04 07:49:50;;;;;;;11.65;6.88;;;11.40;99.90;;;;;;4981601;28;20049;-86
2023/05/04 07:52:16;;;;;;;15.85;6.88;;;11.60;99.90;;;;;;4993935;28;20477;-85
2023/05/04 07:54:42;;;;;;;12.88;7.07;;;11.80;1.00;;;;;;4978650;28;20033;-86
2023/05/04 07:57:08;;;;;;;13.30;6.35;;;11.90;10.90;;;;;;4996092;28;20041;-86
2023/05/04 07:59:33;;;;;;;9.98;6.95;;;12.00;69.70;;;;;;4997135;28;20370;-86
2023/05/04 08:01:59;;;;;;;11.75;7.18;;;12.20;99.90;;;;;;4995939;28;20060;-86
2023/05/04 08:04:25;;;;;;;11.93;6.80;;;12.20;1.00;;;;;;5013323;28;20044;-86
2023/05/04 08:06:50;;;;;;;11.57;6.80;;;12.40;99.90;;;;;;4980241;28;20033;-86
2023/05/04 08:09:17;;;;;;;11.88;6.50;;;12.50;1.00;;;;;;4980153;28;20503;-86
2023/05/04 08:11:43;;;;;;;12.38;6.88;;;12.70;12.10;;;;;;4993485;28;20444;-86
2023/05/04 08:14:10;;;;;;;12.25;6.68;;;13.00;1.00;;;;;;4996491;28;20061;-86
2023/05/04 08:16:36;;;;;;;11.35;6.90;;;13.00;61.20;;;;;;4978799;28;20053;-86
2023/05/04 08:19:05;;;;;;;14.35;6.38;;;13.10;99.90;;;;;;4995635;28;20457;-86
2023/05/04 08:21:31;;;;;;;12.05;6.65;;;13.00;31.40;;;;;;4994304;28;20470;-86
2023/05/04 08:23:56;;;;;;;11.40;6.68;;;13.20;1.00;;;;;;4992237;28;20042;-86
2023/05/04 08:26:25;;;;;;;13.00;6.90;;;13.30;99.90;;;;;;4994671;28;20248;-86
2023/05/04 08:28:51;;;;;;;8.35;5.88;;;13.50;99.90;;;;;;4995262;28;20050;-86
2023/05/04 08:31:17;;;;;;;9.07;5.90;;;13.60;99.90;;;;;;4980143;28;20148;-85
2023/05/04 08:33:44;;;;;;;9.35;6.20;;;13.50;1.00;;;;;;4982151;28;20034;-86
2023/05/04 08:36:11;;;;;;;9.50;5.72;;;13.60;99.90;;;;;;4993371;28;20058;-86
2023/05/04 08:38:37;;;;;;;11.95;6.43;;;13.80;99.90;;;;;;4984974;28;20115;-86
2023/05/04 08:41:04;;;;;;;10.15;6.30;;;13.90;99.90;;;;;;4979099;28;20037;-86
2023/05/04 08:43:37;;;;;;;9.18;6.05;;;14.10;99.90;;;;;;4997340;28;20421;-86
2023/05/04 08:46:03;;;;;;;11.73;6.55;;;14.10;99.90;;;;;;5010366;28;20041;-86
2023/05/04 08:48:31;;;;;;;10.32;5.93;;;14.20;99.90;;;;;;4981945;28;20033;-86
2023/05/04 08:50:57;;;;;;;9.10;6.65;;;14.30;99.90;;;;;;5008657;28;20342;-86
2023/05/04 08:53:24;;;;;;;9.93;5.72;;;14.20;99.90;;;;;;4994929;28;20508;-86
2023/05/04 08:55:52;;;;;;;10.68;6.30;;;14.50;1.00;;;;;;4996805;28;20276;-86
2023/05/04 08:58:20;;;;;;;11.65;6.53;;;14.70;1.00;;;;;;4979316;28;20042;-86
2023/05/04 09:00:46;;;;;;;9.10;6.50;;;14.70;99.90;;;;;;4990934;28;20042;-86
2023/05/04 09:03:14;;;;;;;11.48;6.15;;;14.80;99.90;;;;;;4991608;28;20505;-86
2023/05/04 09:05:45;;;;;;;9.30;6.50;;;15.00;99.90;;;;;;5010372;28;20036;-86
2023/05/04 09:08:10;;;;;;;10.25;5.93;;;14.90;99.90;;;;;;4978805;28;20125;-86
2023/05/04 09:10:36;;;;;;;9.10;5.70;;;15.20;99.90;;;;;;4992168;28;20137;-86
2023/05/04 09:13:02;;;;;;;11.93;5.90;;;15.20;99.90;;;;;;4992269;28;20065;-87
2023/05/04 09:15:31;;;;;;;8.90;5.82;;;15.40;99.90;;;;;;5011534;28;20062;-86
2023/05/04 09:18:05;;;;;;;10.48;5.88;;;15.30;99.90;;;;;;4978757;28;20097;-86
2023/05/04 09:20:51;;;;;;;10.30;5.65;;;15.40;83.60;;;;;;4980151;28;20038;-86
2023/05/04 09:23:17;;;;;;;8.20;5.45;;;15.80;99.90;;;;;;4996833;28;20330;-86
2023/05/04 09:25:47;;;;;;;12.68;5.55;;;15.70;1.00;;;;;;4992899;28;20129;-86
2023/05/04 09:28:14;;;;;;;22.98;6.40;;;15.60;1.00;;;;;;4978524;28;20053;-86
2023/05/04 09:30:39;;;;;;;8.32;5.70;;;15.90;43.70;;;;;;4982063;28;20042;-86
2023/05/04 09:33:09;;;;;;;7.30;5.43;;;15.90;1.00;;;;;;4977045;28;20049;-87
2023/05/04 09:35:41;;;;;;;10.98;5.82;;;15.90;1.00;;;;;;4994696;28;20046;-86
2023/05/04 09:38:10;;;;;;;10.77;5.78;;;16.00;1.00;;;;;;5011616;28;20221;-86
2023/05/04 09:40:40;;;;;;;7.72;5.60;;;16.10;1.00;;;;;;4976867;28;20484;-85
2023/05/04 09:43:07;;;;;;;10.95;5.63;;;16.30;99.90;;;;;;4979440;28;20148;-86
2023/05/04 09:45:46;;;;;;;9.75;5.30;;;16.40;99.90;;;;;;4992174;28;20241;-86
2023/05/04 09:48:19;;;;;;;7.28;5.00;;;16.20;99.90;;;;;;4978926;28;20034;-86
2023/05/04 09:50:58;;;;;;;10.73;5.65;;;16.30;99.90;;;;;;4977069;28;20038;-86
2023/05/04 09:53:26;;;;;;;9.68;5.80;;;16.30;99.90;;;;;;5010941;28;20354;-86
2023/05/04 09:56:04;;;;;;;10.57;5.82;;;16.40;99.90;;;;;;4979197;28;20045;-86
2023/05/04 09:58:31;;;;;;;11.35;5.40;;;16.90;1.00;;;;;;5010329;28;20045;-86
2023/05/04 10:00:59;;;;;;;36.92;8.07;;;17.20;99.90;;;;;;4978808;28;20258;-86
2023/05/04 10:03:26;;;;;;;9.93;5.32;;;17.20;99.90;;;;;;4992737;28;20060;-86
2023/05/04 10:05:53;;;;;;;11.50;5.30;;;17.10;99.90;;;;;;4979360;28;20084;-86
2023/05/04 10:08:19;;;;;;;8.25;5.50;;;17.10;99.90;;;;;;4990647;28;20137;-86
2023/05/04 10:10:45;;;;;;;8.50;5.70;;;17.20;99.90;;;;;;4995086;28;20132;-86
2023/05/04 10:13:11;;;;;;;9.95;5.88;;;17.40;99.90;;;;;;4995725;28;20041;-86
2023/05/04 10:16:08;;;;;;;7.50;4.63;;;17.40;99.90;;;;;;4981232;28;20058;-86
2023/05/04 10:18:58;;;;;;;10.68;5.75;;;17.50;99.90;;;;;;4982901;28;20073;-86
2023/05/04 10:22:06;;;;;;;9.15;5.20;;;17.40;99.90;;;;;;4981475;28;20046;-86
2023/05/04 10:24:38;;;;;;;7.85;5.20;;;17.30;99.90;;;;;;4996876;28;20521;-86
2023/05/04 10:27:04;;;;;;;9.63;5.70;;;17.50;99.90;;;;;;4983283;28;20045;-86
2023/05/04 10:29:32;;;;;;;8.88;5.40;;;17.60;99.90;;;;;;4982993;28;20050;-86
2023/05/04 10:31:58;;;;;;;9.35;5.40;;;17.90;99.90;;;;;;4998971;28;20048;-86
2023/05/04 10:34:32;;;;;;;10.43;5.15;;;18.00;99.90;;;;;;4984269;28;20042;-86
2023/05/04 10:36:59;;;;;;;8.38;5.15;;;18.30;99.90;;;;;;5001925;28;20099;-86
2023/05/04 10:39:26;;;;;;;9.63;5.10;;;17.90;93.80;;;;;;4986424;28;20041;-86
2023/05/04 10:41:58;;;;;;;10.93;5.35;;;18.50;99.90;;;;;;4997748;28;20046;-86
2023/05/04 10:44:24;;;;;;;9.52;5.28;;;18.70;99.90;;;;;;4997024;28;20155;-86
2023/05/04 10:47:04;;;;;;;8.20;5.05;;;18.70;99.90;;;;;;4998697;28;20484;-86
2023/05/04 10:49:31;;;;;;;11.13;4.93;;;18.70;99.90;;;;;;4998192;28;20054;-86
2023/05/04 10:52:23;;;;;;;21.25;5.10;;;18.90;99.40;;;;;;4983493;28;20045;-86
2023/05/04 10:55:00;;;;;;;7.28;4.63;;;19.20;99.90;;;;;;4995234;28;20046;-86
2023/05/04 10:57:27;;;;;;;8.98;4.57;;;19.00;59.00;;;;;;4980239;28;20041;-86
2023/05/04 10:59:58;;;;;;;9.65;4.90;;;19.30;39.70;;;;;;4984330;28;20408;-86
2023/05/04 11:02:27;;;;;;;7.93;5.35;;;19.30;1.00;;;;;;4996765;28;20034;-86
2023/05/04 11:05:04;;;;;;;8.85;4.95;;;19.20;1.00;;;;;;4983408;28;20374;-86
2023/05/04 11:07:38;;;;;;;6.80;4.90;;;19.60;1.00;;;;;;4978808;28;20065;-86
2023/05/04 11:10:20;;;;;;;7.20;4.75;;;19.60;1.00;;;;;;4982954;28;20053;-86
2023/05/04 11:12:45;;;;;;;8.85;4.95;;;19.80;1.00;;;;;;4995671;28;20042;-86
2023/05/04 11:15:11;;;;;;;11.50;5.38;;;19.60;1.00;;;;;;4996797;28;20184;-85
2023/05/04 11:17:51;;;;;;;8.50;4.82;;;19.60;1.00;;;;;;4980798;28;20473;-86
2023/05/04 11:20:21;;;;;;;8.40;4.80;;;19.50;1.00;;;;;;4999522;28;20038;-86
2023/05/04 11:22:48;;;;;;;7.85;4.85;;;19.50;1.00;;;;;;4978734;28;20034;-85
2023/05/04 11:25:13;;;;;;;7.38;4.93;;;19.50;99.90;;;;;;4980897;28;20042;-86
2023/05/04 11:27:40;;;;;;;9.65;5.03;;;19.90;1.00;;;;;;4978502;28;20489;-86
2023/05/04 11:30:07;;;;;;;7.18;4.35;;;20.10;1.00;;;;;;4980988;28;20053;-85
2023/05/04 11:32:41;;;;;;;8.77;5.18;;;20.40;1.00;;;;;;4981895;28;20033;-86
2023/05/04 11:35:13;;;;;;;8.75;5.07;;;20.50;1.00;;;;;;5014598;28;20652;-85
2023/05/04 11:37:40;;;;;;;7.68;5.22;;;20.30;99.90;;;;;;4993797;28;20046;-85
2023/05/04 11:40:13;;;;;;;7.07;5.03;;;20.60;1.00;;;;;;4992264;28;20042;-85
2023/05/04 11:42:41;;;;;;;9.38;5.03;;;20.70;99.90;;;;;;4999770;28;20085;-86
2023/05/04 11:45:31;;;;;;;9.57;5.38;;;20.80;99.90;;;;;;4979960;28;20092;-86
2023/05/04 11:47:58;;;;;;;11.25;5.35;;;20.70;99.90;;;;;;4991472;28;20042;-85
2023/05/04 11:50:25;;;;;;;23.67;5.45;;;20.70;99.90;;;;;;4998219;28;20037;-86
2023/05/04 11:53:09;;;;;;;9.45;5.40;;;21.00;99.90;;;;;;4996225;28;20378;-86
2023/05/04 11:55:36;;;;;;;12.63;5.80;;;21.00;99.90;;;;;;4980145;28;20133;-86
2023/05/04 11:58:06;;;;;;;11.10;4.97;;;20.70;99.90;;;;;;4995825;28;20065;-86
2023/05/04 12:00:43;;;;;;;9.80;4.70;;;20.70;99.90;;;;;;4993195;28;20042;-86
2023/05/04 12:03:22;;;;;;;7.47;5.40;;;20.90;99.90;;;;;;4980410;28;20133;-85
2023/05/04 12:05:49;;;;;;;9.20;5.35;;;20.90;99.90;;;;;;4994637;28;20038;-85
2023/05/04 12:08:21;;;;;;;8.93;5.10;;;20.70;99.90;;;;;;4977958;28;20323;-86
2023/05/04 12:10:47;;;;;;;8.90;4.90;;;20.80;99.90;;;;;;4982224;28;20441;-85
2023/05/04 12:13:16;;;;;;;6.82;5.25;;;21.30;99.90;;;;;;4976322;28;20053;-86
2023/05/04 12:15:42;;;;;;;8.85;5.53;;;21.10;99.90;;;;;;4978572;28;20042;-86
2023/05/04 12:18:20;;;;;;;8.23;5.57;;;21.50;99.90;;;;;;4979405;28;20504;-85
2023/05/04 12:20:47;;;;;;;7.40;5.10;;;21.70;99.90;;;;;;4975342;28;20116;-85
2023/05/04 12:23:13;;;;;;;8.18;5.10;;;21.80;99.90;;;;;;4993078;28;20391;-86
2023/05/04 12:25:38;;;;;;;9.13;5.43;;;21.60;99.90;;;;;;4995113;28;20108;-85
2023/05/04 12:28:04;;;;;;;8.15;4.90;;;22.00;99.90;;;;;;4997365;28;20041;-85
2023/05/04 12:30:30;;;;;;;10.07;5.35;;;21.90;99.90;;;;;;4980631;28;20038;-85
2023/05/04 12:32:56;;;;;;;8.38;5.15;;;21.80;99.90;;;;;;4980642;28;20045;-85
2023/05/04 12:35:22;;;;;;;8.48;4.82;;;21.70;99.90;;;;;;4980506;28;20193;-86
2023/05/04 12:37:47;;;;;;;9.48;5.07;;;21.80;99.90;;;;;;4979221;28;20078;-85
2023/05/04 12:40:13;;;;;;;9.10;5.05;;;22.10;99.90;;;;;;4996038;28;20130;-85
2023/05/04 12:42:41;;;;;;;8.70;5.32;;;22.10;99.90;;;;;;4980043;28;20042;-85
2023/05/04 12:45:07;;;;;;;12.20;5.47;;;21.90;99.90;;;;;;4999134;28;20060;-85
2023/05/04 12:47:32;;;;;;;8.88;5.32;;;21.80;99.90;;;;;;4980644;28;20642;-85